Time;durP1;ratioP1;P1;durP2;ratioP2;P2;SDS_P1;SDS_P2;PMS_P1;PMS_P2;Temp;Humidity;BMP_temperature;BMP_pressure;BME280_temperature;BME280_humidity;BME280_pressure;Samples;Min_cycle;Max_cycle;Signal;HPM_P1;HPM_P2
2022/09/11 00:00:11;;;;;;;;;12.33;12.33;;;;;;;;5068522;27;45854;-76
2022/09/11 00:02:36;;;;;;;;;14.33;11.67;;;;;;;;5068421;28;46831;-75
2022/09/11 00:05:02;;;;;;;;;11.00;11.00;;;;;;;;5074963;27;45446;-75
2022/09/11 00:07:27;;;;;;;;;8.67;7.00;;;;;;;;5073539;27;45379;-76
2022/09/11 00:09:52;;;;;;;;;9.67;9.67;;;;;;;;5063810;27;45404;-74
2022/09/11 00:12:17;;;;;;;;;12.67;9.33;;;;;;;;5072680;27;46393;-75
2022/09/11 00:14:42;;;;;;;;;10.00;9.00;;;;;;;;5060501;27;45683;-77
2022/09/11 00:17:08;;;;;;;;;8.67;8.67;;;;;;;;5072141;27;45689;-76
2022/09/11 00:19:34;;;;;;;;;12.33;10.00;;;;;;;;5062594;28;45440;-75
2022/09/11 00:21:59;;;;;;;;;10.67;9.33;;;;;;;;5072785;28;46177;-76
2022/09/11 00:24:28;;;;;;;;;11.33;11.33;;;;;;;;5043499;28;45709;-77
2022/09/11 00:26:53;;;;;;;;;15.00;12.00;;;;;;;;5060599;27;45642;-74
2022/09/11 00:29:18;;;;;;;;;13.00;10.33;;;;;;;;5054605;28;45916;-76
2022/09/11 00:31:48;;;;;;;;;13.33;13.33;;;;;;;;5068150;27;45689;-74
2022/09/11 00:34:13;;;;;;;;;11.00;11.00;;;;;;;;5051870;28;45730;-76
2022/09/11 00:36:40;;;;;;;;;11.67;11.67;;;;;;;;5050096;28;45703;-75
2022/09/11 00:39:05;;;;;;;;;14.33;12.00;;;;;;;;5062416;27;45320;-75
2022/09/11 00:41:34;;;;;;;;;16.33;14.00;;;;;;;;5050868;28;45935;-76
2022/09/11 00:44:20;;;;;;;;;19.67;14.67;;;;;;;;5063363;27;45402;-77
2022/09/11 00:46:54;;;;;;;;;14.67;14.00;;;;;;;;5057171;27;45453;-76
2022/09/11 00:49:29;;;;;;;;;14.67;10.67;;;;;;;;5066072;28;45839;-77
2022/09/11 00:51:58;;;;;;;;;14.00;11.00;;;;;;;;5055507;28;46759;-76
2022/09/11 00:54:25;;;;;;;;;11.00;11.00;;;;;;;;5073014;28;45384;-76
2022/09/11 00:56:52;;;;;;;;;13.67;10.00;;;;;;;;5073465;27;45441;-76
2022/09/11 00:59:20;;;;;;;;;14.33;11.00;;;;;;;;5062407;27;45938;-76
2022/09/11 01:01:45;;;;;;;;;13.00;11.67;;;;;;;;5062359;27;45412;-75
2022/09/11 01:04:10;;;;;;;;;12.33;11.33;;;;;;;;5067331;27;45331;-74
2022/09/11 01:06:36;;;;;;;;;11.33;11.00;;;;;;;;5068956;28;45659;-73
2022/09/11 01:09:01;;;;;;;;;15.00;11.67;;;;;;;;5054598;28;46361;-76
2022/09/11 01:12:02;;;;;;;;;12.33;11.33;;;;;;;;5059749;27;45458;-77
2022/09/11 01:14:33;;;;;;;;;12.67;10.00;;;;;;;;4942804;28;45582;-77
2022/09/11 01:17:19;;;;;;;;;12.67;11.33;;;;;;;;5041298;28;45364;-76
2022/09/11 01:20:04;;;;;;;;;13.00;12.67;;;;;;;;5051040;28;45622;-77
2022/09/11 01:22:42;;;;;;;;;16.33;15.00;;;;;;;;5077077;27;45864;-75
2022/09/11 01:25:29;;;;;;;;;12.67;11.33;;;;;;;;5072383;28;45416;-75
2022/09/11 01:27:56;;;;;;;;;14.00;12.00;;;;;;;;5070410;27;45806;-74
2022/09/11 01:30:23;;;;;;;;;13.67;13.67;;;;;;;;5056966;27;45358;-77
2022/09/11 01:32:48;;;;;;;;;16.67;13.67;;;;;;;;5050819;28;46144;-75
2022/09/11 01:35:19;;;;;;;;;13.67;13.67;;;;;;;;5073906;27;45690;-74
2022/09/11 01:37:54;;;;;;;;;15.67;12.00;;;;;;;;5072372;27;45350;-74
2022/09/11 01:40:35;;;;;;;;;12.00;11.67;;;;;;;;5074149;28;45430;-76
2022/09/11 01:43:12;;;;;;;;;18.00;13.67;;;;;;;;5058235;28;46272;-75
2022/09/11 01:45:40;;;;;;;;;18.00;14.33;;;;;;;;5060562;27;45745;-76
2022/09/11 01:48:06;;;;;;;;;18.67;15.33;;;;;;;;5086419;27;45384;-73
2022/09/11 01:50:32;;;;;;;;;16.33;12.33;;;;;;;;5064646;27;45459;-75
2022/09/11 01:52:59;;;;;;;;;14.67;13.33;;;;;;;;5075700;28;45302;-73
2022/09/11 01:55:34;;;;;;;;;14.33;12.00;;;;;;;;5061432;28;45526;-74
2022/09/11 01:58:06;;;;;;;;;21.67;16.67;;;;;;;;5060721;28;45291;-74
2022/09/11 02:00:34;;;;;;;;;12.00;12.00;;;;;;;;5074201;27;46028;-75
2022/09/11 02:03:04;;;;;;;;;17.67;15.67;;;;;;;;5054261;28;46493;-75
2022/09/11 02:05:37;;;;;;;;;16.33;16.00;;;;;;;;5074613;27;45602;-75
2022/09/11 02:08:07;;;;;;;;;13.67;12.00;;;;;;;;5075255;28;45912;-74
2022/09/11 02:10:38;;;;;;;;;20.00;17.00;;;;;;;;5068314;27;45398;-76
2022/09/11 02:13:06;;;;;;;;;11.00;11.00;;;;;;;;5069977;27;46520;-75
2022/09/11 02:15:35;;;;;;;;;15.67;14.33;;;;;;;;5072321;27;45526;-75
2022/09/11 02:18:02;;;;;;;;;13.00;12.33;;;;;;;;5047244;28;45666;-76
2022/09/11 02:20:27;;;;;;;;;16.67;14.00;;;;;;;;5075339;27;45612;-75
2022/09/11 02:22:53;;;;;;;;;18.67;15.67;;;;;;;;5065754;28;46035;-76
2022/09/11 02:25:18;;;;;;;;;16.00;12.00;;;;;;;;5075172;27;45335;-76
2022/09/11 02:27:43;;;;;;;;;16.67;16.67;;;;;;;;5068368;27;45790;-74
2022/09/11 02:30:09;;;;;;;;;18.00;17.00;;;;;;;;5074739;27;45644;-73
2022/09/11 02:32:36;;;;;;;;;18.00;16.33;;;;;;;;5074499;27;46096;-74
2022/09/11 02:35:01;;;;;;;;;16.67;15.00;;;;;;;;5074641;27;45735;-74
2022/09/11 02:37:33;;;;;;;;;17.00;15.67;;;;;;;;5057032;28;45483;-75
2022/09/11 02:40:06;;;;;;;;;16.00;14.33;;;;;;;;5074812;27;45385;-74
2022/09/11 02:42:31;;;;;;;;;20.33;19.33;;;;;;;;5074497;28;45657;-74
2022/09/11 02:45:15;;;;;;;;;18.00;15.00;;;;;;;;5074308;28;45903;-73
2022/09/11 02:47:58;;;;;;;;;16.33;12.00;;;;;;;;5063765;28;45629;-74
2022/09/11 02:50:42;;;;;;;;;20.67;13.33;;;;;;;;5070562;27;46048;-75
2022/09/11 02:53:25;;;;;;;;;16.00;15.67;;;;;;;;5055410;28;48328;-76
2022/09/11 02:55:54;;;;;;;;;16.00;15.00;;;;;;;;5059867;28;45480;-75
2022/09/11 02:58:42;;;;;;;;;14.00;14.00;;;;;;;;5057223;28;45759;-73
2022/09/11 03:01:08;;;;;;;;;10.67;10.67;;;;;;;;5044153;27;46076;-75
2022/09/11 03:03:39;;;;;;;;;16.33;16.00;;;;;;;;5074007;27;46105;-74
2022/09/11 03:06:07;;;;;;;;;21.00;21.00;;;;;;;;5075790;27;45442;-75
2022/09/11 03:08:32;;;;;;;;;24.67;23.00;;;;;;;;5059223;28;45401;-75
2022/09/11 03:10:57;;;;;;;;;23.00;18.67;;;;;;;;5064594;27;45550;-76
2022/09/11 03:13:23;;;;;;;;;26.33;23.00;;;;;;;;5066191;28;45736;-75
2022/09/11 03:15:48;;;;;;;;;18.00;18.00;;;;;;;;5051538;28;45540;-74
2022/09/11 03:18:14;;;;;;;;;17.33;14.67;;;;;;;;5069241;27;45596;-75
2022/09/11 03:20:42;;;;;;;;;13.67;13.67;;;;;;;;5069183;28;45654;-75
2022/09/11 03:23:09;;;;;;;;;19.67;17.33;;;;;;;;5064978;27;46484;-74
2022/09/11 03:25:34;;;;;;;;;22.67;20.67;;;;;;;;5068951;28;45408;-75
2022/09/11 03:28:00;;;;;;;;;23.33;20.33;;;;;;;;5067535;27;45702;-75
2022/09/11 03:30:25;;;;;;;;;25.67;21.67;;;;;;;;5073203;28;45259;-74
2022/09/11 03:32:50;;;;;;;;;21.67;17.33;;;;;;;;5067357;27;45484;-75
2022/09/11 03:35:15;;;;;;;;;18.00;17.33;;;;;;;;5073060;27;45297;-76
2022/09/11 03:37:41;;;;;;;;;19.67;16.00;;;;;;;;5053603;28;45366;-76
2022/09/11 03:40:06;;;;;;;;;25.33;22.00;;;;;;;;5071907;28;45493;-75
2022/09/11 03:42:32;;;;;;;;;37.00;24.67;;;;;;;;5073478;28;45656;-74
2022/09/11 03:44:57;;;;;;;;;28.33;24.00;;;;;;;;5042161;28;45648;-74
2022/09/11 03:47:22;;;;;;;;;25.00;24.00;;;;;;;;5046608;28;45700;-76
2022/09/11 03:49:48;;;;;;;;;26.33;20.67;;;;;;;;5061040;27;45699;-74
2022/09/11 03:52:13;;;;;;;;;28.67;22.33;;;;;;;;5046341;27;46963;-75
2022/09/11 03:54:38;;;;;;;;;25.33;21.33;;;;;;;;5064004;27;45650;-74
2022/09/11 03:57:04;;;;;;;;;20.67;16.67;;;;;;;;5067298;27;45665;-74
2022/09/11 03:59:30;;;;;;;;;19.00;19.00;;;;;;;;5071814;27;45312;-72
2022/09/11 04:01:55;;;;;;;;;23.33;21.00;;;;;;;;5069776;27;45669;-73
2022/09/11 04:04:20;;;;;;;;;16.67;16.33;;;;;;;;5071232;27;45799;-73
2022/09/11 04:06:46;;;;;;;;;18.33;14.33;;;;;;;;5053924;27;45729;-76
2022/09/11 04:09:11;;;;;;;;;19.00;18.67;;;;;;;;5052864;27;46059;-76
2022/09/11 04:11:38;;;;;;;;;25.00;20.67;;;;;;;;5075033;27;46152;-76
2022/09/11 04:14:04;;;;;;;;;10.67;10.67;;;;;;;;5067176;27;46335;-75
2022/09/11 04:16:31;;;;;;;;;12.33;11.00;;;;;;;;5071140;27;45880;-75
2022/09/11 04:18:58;;;;;;;;;17.67;17.00;;;;;;;;5051610;27;47651;-75
2022/09/11 04:21:23;;;;;;;;;13.67;12.00;;;;;;;;5066474;27;45745;-74
2022/09/11 04:23:53;;;;;;;;;13.00;11.33;;;;;;;;5071501;27;45338;-76
2022/09/11 04:26:19;;;;;;;;;20.00;15.67;;;;;;;;5064072;27;45500;-75
2022/09/11 04:28:45;;;;;;;;;17.33;15.67;;;;;;;;5068002;27;45295;-76
2022/09/11 04:31:10;;;;;;;;;16.67;14.00;;;;;;;;5066428;27;46754;-76
2022/09/11 04:33:38;;;;;;;;;23.00;19.67;;;;;;;;5060427;27;45733;-74
2022/09/11 04:36:07;;;;;;;;;19.00;16.00;;;;;;;;5075952;27;45406;-77
2022/09/11 04:38:32;;;;;;;;;23.00;18.00;;;;;;;;5071932;27;45784;-76
2022/09/11 04:41:01;;;;;;;;;16.33;14.00;;;;;;;;5051874;27;45957;-77
2022/09/11 04:43:27;;;;;;;;;15.67;12.33;;;;;;;;5072004;27;45447;-75
2022/09/11 04:45:58;;;;;;;;;14.67;12.00;;;;;;;;5071603;27;45382;-77
2022/09/11 04:48:24;;;;;;;;;18.00;12.33;;;;;;;;5058287;27;46385;-75
2022/09/11 04:50:56;;;;;;;;;16.00;13.33;;;;;;;;5062195;27;47180;-78
2022/09/11 04:53:22;;;;;;;;;16.00;12.00;;;;;;;;5081562;27;45438;-76
2022/09/11 04:55:49;;;;;;;;;19.67;17.33;;;;;;;;5081966;27;45345;-77
2022/09/11 04:58:14;;;;;;;;;17.00;11.67;;;;;;;;5076237;27;45429;-76
2022/09/11 05:00:40;;;;;;;;;8.00;7.67;;;;;;;;5081169;27;46872;-76
2022/09/11 05:03:05;;;;;;;;;12.33;12.33;;;;;;;;5077394;27;45455;-76
2022/09/11 05:05:31;;;;;;;;;15.67;15.33;;;;;;;;5078513;27;45303;-75
2022/09/11 05:07:56;;;;;;;;;15.00;15.00;;;;;;;;5072705;27;45420;-76
2022/09/11 05:10:21;;;;;;;;;18.00;13.67;;;;;;;;5069731;27;46434;-76
2022/09/11 05:12:46;;;;;;;;;14.67;13.67;;;;;;;;5066885;27;45407;-77
2022/09/11 05:15:12;;;;;;;;;17.67;13.33;;;;;;;;5063551;27;45607;-75
2022/09/11 05:17:38;;;;;;;;;15.00;11.00;;;;;;;;5061337;27;45604;-76
2022/09/11 05:20:03;;;;;;;;;16.00;12.00;;;;;;;;5062038;27;46094;-76
2022/09/11 05:22:29;;;;;;;;;12.33;11.00;;;;;;;;5067413;27;45606;-75
2022/09/11 05:24:54;;;;;;;;;10.00;9.00;;;;;;;;5061495;27;45689;-77
2022/09/11 05:27:20;;;;;;;;;11.33;11.00;;;;;;;;5075605;27;45490;-75
2022/09/11 05:29:45;;;;;;;;;7.33;7.33;;;;;;;;5067915;27;46049;-74
2022/09/11 05:32:12;;;;;;;;;12.00;11.00;;;;;;;;5075958;28;45881;-75
2022/09/11 05:34:37;;;;;;;;;15.00;11.00;;;;;;;;5071790;27;45527;-75
2022/09/11 05:37:02;;;;;;;;;15.33;11.67;;;;;;;;5072275;27;45408;-74
2022/09/11 05:39:28;;;;;;;;;9.00;7.33;;;;;;;;5074012;27;46263;-75
2022/09/11 05:41:54;;;;;;;;;15.67;12.00;;;;;;;;5072304;27;45734;-75
2022/09/11 05:44:19;;;;;;;;;12.00;11.00;;;;;;;;5061778;27;45436;-75
2022/09/11 05:46:45;;;;;;;;;12.00;11.00;;;;;;;;5065422;28;47168;-75
2022/09/11 05:49:10;;;;;;;;;14.33;12.00;;;;;;;;5048115;28;45854;-76
2022/09/11 05:51:36;;;;;;;;;13.67;13.67;;;;;;;;5057395;28;45840;-71
2022/09/11 05:54:02;;;;;;;;;17.00;12.33;;;;;;;;5066172;27;45814;-70
2022/09/11 05:56:28;;;;;;;;;13.67;12.00;;;;;;;;5057575;27;45416;-71
2022/09/11 05:58:53;;;;;;;;;15.33;14.00;;;;;;;;5038062;28;46027;-70
2022/09/11 06:01:22;;;;;;;;;15.33;14.00;;;;;;;;5058416;28;45431;-73
2022/09/11 06:03:48;;;;;;;;;14.00;10.67;;;;;;;;5074441;27;45819;-70
2022/09/11 06:06:14;;;;;;;;;13.67;11.00;;;;;;;;5061342;27;45782;-71
2022/09/11 06:08:42;;;;;;;;;13.67;12.00;;;;;;;;5056493;27;46009;-70
2022/09/11 06:11:08;;;;;;;;;9.00;6.67;;;;;;;;5043207;27;45746;-71
2022/09/11 06:13:40;;;;;;;;;12.00;10.33;;;;;;;;5059676;27;45864;-69
2022/09/11 06:16:16;;;;;;;;;10.33;7.67;;;;;;;;5053895;28;46026;-71
2022/09/11 06:18:42;;;;;;;;;17.67;14.33;;;;;;;;5051106;28;47321;-70
2022/09/11 06:21:09;;;;;;;;;15.67;13.67;;;;;;;;5069840;27;45668;-71
2022/09/11 06:23:36;;;;;;;;;15.67;10.00;;;;;;;;5047012;27;45553;-72
2022/09/11 06:26:09;;;;;;;;;14.67;13.33;;;;;;;;5058866;27;45901;-72
2022/09/11 06:28:35;;;;;;;;;14.33;12.67;;;;;;;;5054858;27;46165;-70
2022/09/11 06:31:01;;;;;;;;;11.67;11.67;;;;;;;;5057916;27;45714;-69
2022/09/11 06:33:29;;;;;;;;;15.33;12.67;;;;;;;;5042345;28;45814;-73
2022/09/11 06:35:58;;;;;;;;;14.67;10.00;;;;;;;;5052501;27;45363;-70
2022/09/11 06:38:23;;;;;;;;;14.67;12.67;;;;;;;;5044605;28;46926;-70
2022/09/11 06:40:50;;;;;;;;;14.67;12.00;;;;;;;;5067633;27;45959;-71
2022/09/11 06:43:15;;;;;;;;;15.00;13.33;;;;;;;;5065847;27;45454;-66
2022/09/11 06:45:41;;;;;;;;;16.00;14.00;;;;;;;;5062844;27;45883;-70
2022/09/11 06:48:06;;;;;;;;;15.00;13.67;;;;;;;;5048452;28;47263;-70
2022/09/11 06:50:39;;;;;;;;;16.67;12.67;;;;;;;;5065664;28;45653;-68
2022/09/11 06:53:05;;;;;;;;;13.00;11.00;;;;;;;;5062856;27;45643;-71
2022/09/11 06:55:31;;;;;;;;;13.33;12.67;;;;;;;;5064839;27;45723;-69
2022/09/11 06:57:56;;;;;;;;;14.33;13.33;;;;;;;;5063215;28;46979;-71
2022/09/11 07:00:22;;;;;;;;;10.00;9.00;;;;;;;;5065727;27;45488;-70
2022/09/11 07:02:47;;;;;;;;;12.67;10.00;;;;;;;;5056871;27;45478;-70
2022/09/11 07:05:12;;;;;;;;;13.33;9.67;;;;;;;;5062734;27;45676;-71
2022/09/11 07:07:38;;;;;;;;;11.00;10.67;;;;;;;;5061352;27;45729;-70
2022/09/11 07:10:04;;;;;;;;;15.33;13.67;;;;;;;;5044609;27;45390;-71
2022/09/11 07:12:30;;;;;;;;;15.33;14.33;;;;;;;;5056514;27;45972;-70
2022/09/11 07:14:56;;;;;;;;;11.00;8.00;;;;;;;;5059955;27;45601;-69
2022/09/11 07:17:21;;;;;;;;;10.67;7.33;;;;;;;;5052158;27;46287;-72
2022/09/11 07:19:46;;;;;;;;;12.00;10.33;;;;;;;;5036720;27;45751;-73
2022/09/11 07:22:13;;;;;;;;;15.67;13.00;;;;;;;;5060804;27;45589;-73
2022/09/11 07:24:39;;;;;;;;;15.33;12.00;;;;;;;;5066084;27;45642;-70
2022/09/11 07:27:04;;;;;;;;;18.33;15.33;;;;;;;;5063760;27;45938;-69
2022/09/11 07:29:30;;;;;;;;;18.00;16.00;;;;;;;;5069233;27;45758;-72
2022/09/11 07:31:57;;;;;;;;;10.33;9.33;;;;;;;;5069556;27;45601;-71
2022/09/11 07:34:22;;;;;;;;;11.67;11.67;;;;;;;;5061637;27;46255;-77
2022/09/11 07:36:50;;;;;;;;;14.67;11.00;;;;;;;;5039145;28;47034;-78
2022/09/11 07:39:15;;;;;;;;;21.33;15.33;;;;;;;;5066225;27;45761;-79
2022/09/11 07:41:41;;;;;;;;;21.33;17.33;;;;;;;;5061953;27;45752;-79
2022/09/11 07:44:06;;;;;;;;;17.67;16.00;;;;;;;;5067451;27;45901;-78
2022/09/11 07:46:31;;;;;;;;;14.00;14.00;;;;;;;;5068500;27;46001;-76
2022/09/11 07:48:57;;;;;;;;;14.67;14.67;;;;;;;;5061437;28;45630;-76
2022/09/11 07:51:23;;;;;;;;;16.33;15.00;;;;;;;;5069366;27;45702;-77
2022/09/11 07:53:53;;;;;;;;;15.00;13.00;;;;;;;;5050453;28;47229;-78
2022/09/11 07:56:22;;;;;;;;;13.33;10.67;;;;;;;;5067585;28;47104;-77
2022/09/11 07:58:48;;;;;;;;;17.00;16.33;;;;;;;;5035303;28;45680;-76
2022/09/11 08:01:15;;;;;;;;;24.00;18.67;;;;;;;;5053578;28;46399;-77
2022/09/11 08:03:43;;;;;;;;;22.33;20.33;;;;;;;;5051906;27;47289;-77
2022/09/11 08:06:13;;;;;;;;;19.00;17.00;;;;;;;;5046392;27;46909;-77
2022/09/11 08:08:39;;;;;;;;;20.33;15.33;;;;;;;;5057285;27;45734;-76
2022/09/11 08:11:06;;;;;;;;;24.33;19.33;;;;;;;;5049025;28;45461;-79
2022/09/11 08:13:32;;;;;;;;;24.33;22.67;;;;;;;;5058739;27;45560;-76
2022/09/11 08:15:59;;;;;;;;;23.00;19.67;;;;;;;;5069128;28;46024;-76
2022/09/11 08:18:24;;;;;;;;;24.33;21.00;;;;;;;;5067098;27;45626;-78
2022/09/11 08:20:50;;;;;;;;;27.00;25.33;;;;;;;;5066711;27;46226;-75
2022/09/11 08:23:20;;;;;;;;;27.67;25.00;;;;;;;;5039703;28;47013;-75
2022/09/11 08:25:46;;;;;;;;;26.33;22.00;;;;;;;;5066582;27;45684;-79
2022/09/11 08:28:11;;;;;;;;;23.33;20.67;;;;;;;;5072089;27;45598;-79
2022/09/11 08:30:37;;;;;;;;;20.00;18.00;;;;;;;;5072345;27;45752;-80
2022/09/11 08:33:03;;;;;;;;;27.33;26.33;;;;;;;;5061632;27;45371;-79
2022/09/11 08:35:28;;;;;;;;;29.00;22.00;;;;;;;;5058733;28;46369;-78
2022/09/11 08:37:54;;;;;;;;;22.67;21.33;;;;;;;;5050474;28;45393;-80
2022/09/11 08:40:19;;;;;;;;;26.33;22.67;;;;;;;;5066913;27;45584;-76
2022/09/11 08:42:45;;;;;;;;;32.67;27.67;;;;;;;;5054563;27;45837;-78
2022/09/11 08:45:18;;;;;;;;;35.00;32.33;;;;;;;;5069279;28;46925;-78
2022/09/11 08:47:50;;;;;;;;;27.33;27.00;;;;;;;;5071889;27;45400;-79
2022/09/11 08:50:19;;;;;;;;;38.00;29.00;;;;;;;;5063546;27;45832;-79
2022/09/11 08:52:44;;;;;;;;;34.00;29.00;;;;;;;;5067052;28;45779;-78
2022/09/11 08:55:16;;;;;;;;;32.67;29.67;;;;;;;;5065791;27;45506;-77
2022/09/11 08:57:53;;;;;;;;;35.33;29.67;;;;;;;;5065415;28;45463;-78
2022/09/11 09:00:23;;;;;;;;;34.67;30.00;;;;;;;;5070669;27;45425;-79
2022/09/11 09:03:01;;;;;;;;;33.00;27.33;;;;;;;;5071124;27;45658;-77
2022/09/11 09:05:45;;;;;;;;;39.33;35.00;;;;;;;;5058735;28;45710;-79
2022/09/11 09:08:11;;;;;;;;;25.33;22.33;;;;;;;;5064037;28;45397;-78
2022/09/11 09:10:39;;;;;;;;;30.33;27.33;;;;;;;;5056712;28;45915;-78
2022/09/11 09:13:14;;;;;;;;;25.33;24.67;;;;;;;;5056956;28;45544;-78
2022/09/11 09:15:39;;;;;;;;;26.33;23.33;;;;;;;;5057115;27;45567;-78
2022/09/11 09:18:11;;;;;;;;;25.00;25.00;;;;;;;;5045606;28;45303;-79
2022/09/11 09:20:38;;;;;;;;;25.33;24.00;;;;;;;;5079713;27;45786;-78
2022/09/11 09:23:15;;;;;;;;;30.67;28.67;;;;;;;;5073298;27;45713;-77
2022/09/11 09:25:41;;;;;;;;;29.33;25.67;;;;;;;;5054238;27;47049;-79
2022/09/11 09:28:13;;;;;;;;;29.67;27.67;;;;;;;;5079777;27;45715;-77
2022/09/11 09:30:47;;;;;;;;;32.33;28.33;;;;;;;;5073990;27;45641;-75
2022/09/11 09:33:21;;;;;;;;;21.67;21.00;;;;;;;;5044376;28;47222;-76
2022/09/11 09:35:47;;;;;;;;;27.00;24.67;;;;;;;;5061767;27;46115;-75
2022/09/11 09:38:24;;;;;;;;;27.00;25.67;;;;;;;;5073678;28;45424;-78
2022/09/11 09:41:21;;;;;;;;;25.00;23.50;;;;;;;;5054496;28;45406;-78
2022/09/11 09:43:53;;;;;;;;;25.33;24.33;;;;;;;;5072887;27;45690;-76
2022/09/11 09:46:41;;;;;;;;;30.00;27.67;;;;;;;;5071912;28;46282;-76
2022/09/11 09:49:09;;;;;;;;;28.00;26.00;;;;;;;;5057882;28;45439;-78
2022/09/11 09:51:35;;;;;;;;;27.33;24.00;;;;;;;;5051915;28;45843;-77
2022/09/11 09:54:00;;;;;;;;;30.67;28.00;;;;;;;;5065372;28;45437;-74
2022/09/11 09:56:29;;;;;;;;;30.00;29.00;;;;;;;;5052351;28;46574;-76
2022/09/11 09:59:08;;;;;;;;;27.67;23.67;;;;;;;;5049244;27;45317;-77
2022/09/11 10:01:47;;;;;;;;;20.67;20.33;;;;;;;;5056435;28;45706;-73
2022/09/11 10:04:13;;;;;;;;;23.33;22.00;;;;;;;;5056196;27;45622;-72
2022/09/11 10:06:39;;;;;;;;;20.00;18.00;;;;;;;;5067586;27;45418;-71
2022/09/11 10:09:16;;;;;;;;;25.33;24.33;;;;;;;;5072756;27;45367;-71
2022/09/11 10:11:42;;;;;;;;;21.67;21.33;;;;;;;;5056027;28;45512;-71
2022/09/11 10:14:21;;;;;;;;;20.33;19.00;;;;;;;;5055489;28;45778;-71
2022/09/11 10:16:48;;;;;;;;;25.00;22.67;;;;;;;;5042041;28;47553;-72
2022/09/11 10:19:33;;;;;;;;;16.33;16.00;;;;;;;;5069369;27;45459;-73
2022/09/11 10:22:20;;;;;;;;;14.33;12.33;;;;;;;;5037383;28;45771;-73
2022/09/11 10:24:51;;;;;;;;;14.75;13.75;;;;;;;;5045891;28;45714;-73
2022/09/11 10:27:17;;;;;;;;;9.50;8.75;;;;;;;;5073720;28;46346;-73
2022/09/11 10:29:49;;;;;;;;;8.75;7.00;;;;;;;;5075398;27;45953;-74
2022/09/11 10:32:16;;;;;;;;;12.25;9.50;;;;;;;;5074962;27;45587;-73
2022/09/11 10:34:42;;;;;;;;;11.25;10.00;;;;;;;;5074327;28;45467;-73
2022/09/11 10:37:12;;;;;;;;;10.25;8.25;;;;;;;;5055684;27;47934;-71
2022/09/11 10:39:40;;;;;;;;;10.25;8.75;;;;;;;;5074748;28;45738;-72
2022/09/11 10:42:21;;;;;;;;;11.25;10.00;;;;;;;;5074170;28;45423;-73
2022/09/11 10:44:51;;;;;;;;;9.25;9.25;;;;;;;;5074666;28;45647;-71
2022/09/11 10:47:20;;;;;;;;;9.75;9.75;;;;;;;;5074221;27;45675;-72
2022/09/11 10:49:46;;;;;;;;;8.00;8.00;;;;;;;;5056415;28;45571;-72
2022/09/11 10:52:12;;;;;;;;;9.00;9.00;;;;;;;;5056488;28;45672;-73
2022/09/11 10:54:43;;;;;;;;;13.00;11.00;;;;;;;;5075161;27;45807;-73
2022/09/11 10:57:27;;;;;;;;;19.75;17.25;;;;;;;;5073777;28;45443;-75
2022/09/11 11:00:40;;;;;;;;;10.50;9.25;;;;;;;;5073588;27;45489;-72
2022/09/11 11:03:11;;;;;;;;;10.00;10.00;;;;;;;;5064374;27;45910;-71
2022/09/11 11:06:05;;;;;;;;;6.25;6.25;;;;;;;;5074027;27;45602;-71
2022/09/11 11:08:47;;;;;;;;;7.00;7.00;;;;;;;;5044440;28;45763;-71
2022/09/11 11:11:27;;;;;;;;;8.00;8.00;;;;;;;;5062848;28;45403;-72
2022/09/11 11:14:14;;;;;;;;;10.25;9.25;;;;;;;;5056937;28;45753;-71
2022/09/11 11:16:58;;;;;;;;;10.50;7.50;;;;;;;;5056221;28;45699;-71
2022/09/11 11:19:36;;;;;;;;;10.25;8.75;;;;;;;;5040478;28;46694;-71
2022/09/11 11:22:21;;;;;;;;;99.75;93.25;;;;;;;;5055495;28;45399;-73
2022/09/11 11:24:46;;;;;;;;;22.33;20.33;;;;;;;;5074209;28;45458;-70
2022/09/11 11:27:20;;;;;;;;;7.50;7.50;;;;;;;;5074628;27;45740;-71
2022/09/11 11:29:46;;;;;;;;;18.00;18.00;;;;;;;;5061348;27;45735;-71
2022/09/11 11:32:35;;;;;;;;;16.00;11.00;;;;;;;;5073513;27;45423;-71
2022/09/11 11:35:07;;;;;;;;;7.25;6.25;;;;;;;;5054432;28;45357;-72
2022/09/11 11:37:37;;;;;;;;;9.00;9.00;;;;;;;;5049025;27;46867;-72
2022/09/11 11:40:12;;;;;;;;;10.50;7.25;;;;;;;;5050342;27;47835;-71
2022/09/11 11:42:41;;;;;;;;;6.33;6.33;;;;;;;;5073444;27;45872;-73
2022/09/11 11:45:19;;;;;;;;;23.00;18.67;;;;;;;;5079877;27;45434;-73
2022/09/11 11:47:46;;;;;;;;;18.67;15.67;;;;;;;;5068954;27;46072;-74
2022/09/11 11:50:24;;;;;;;;;12.33;12.33;;;;;;;;5062137;27;47314;-76
2022/09/11 11:52:57;;;;;;;;;10.67;8.00;;;;;;;;5066290;27;45463;-76
2022/09/11 11:55:31;;;;;;;;;5.25;5.25;;;;;;;;5053049;28;45931;-75
2022/09/11 11:58:03;;;;;;;;;8.00;7.00;;;;;;;;5068454;27;45325;-77
2022/09/11 12:00:33;;;;;;;;;9.33;8.00;;;;;;;;5065063;27;45869;-74
2022/09/11 12:03:06;;;;;;;;;11.00;6.75;;;;;;;;5059603;27;46051;-75
2022/09/11 12:05:33;;;;;;;;;8.00;5.67;;;;;;;;5048013;27;45519;-73
2022/09/11 12:07:59;;;;;;;;;6.50;6.25;;;;;;;;5059660;27;46299;-73
2022/09/11 12:10:27;;;;;;;;;6.25;6.00;;;;;;;;5056440;28;46724;-77
2022/09/11 12:12:54;;;;;;;;;6.00;6.00;;;;;;;;5063221;27;45437;-76
2022/09/11 12:15:21;;;;;;;;;7.00;7.00;;;;;;;;5068150;27;45771;-73
2022/09/11 12:17:48;;;;;;;;;8.67;7.00;;;;;;;;5072651;27;45708;-73
2022/09/11 12:20:28;;;;;;;;;6.25;6.25;;;;;;;;5073891;28;45943;-75
2022/09/11 12:22:53;;;;;;;;;5.75;5.75;;;;;;;;5067982;27;45783;-75
2022/09/11 12:25:22;;;;;;;;;5.75;5.75;;;;;;;;5073969;27;45520;-75
2022/09/11 12:27:53;;;;;;;;;21.00;18.67;;;;;;;;5071375;28;45656;-75
2022/09/11 12:30:21;;;;;;;;;5.75;4.25;;;;;;;;5069934;28;45751;-74
2022/09/11 12:32:51;;;;;;;;;4.67;4.67;;;;;;;;5072213;28;45647;-75
2022/09/11 12:35:19;;;;;;;;;10.67;8.33;;;;;;;;5058410;27;45726;-75
2022/09/11 12:37:46;;;;;;;;;9.67;8.33;;;;;;;;5072911;27;45554;-74
2022/09/11 12:40:19;;;;;;;;;6.25;6.25;;;;;;;;5060088;27;45283;-73
2022/09/11 12:42:46;;;;;;;;;7.50;7.00;;;;;;;;5055256;28;45422;-74
2022/09/11 12:45:33;;;;;;;;;10.33;10.33;;;;;;;;5066030;28;45426;-73
2022/09/11 12:48:02;;;;;;;;;7.00;5.75;;;;;;;;5055953;27;45795;-73
2022/09/11 12:50:28;;;;;;;;;6.75;5.50;;;;;;;;5050073;27;48017;-73
2022/09/11 12:53:00;;;;;;;;;7.25;5.25;;;;;;;;5041054;28;45787;-74
2022/09/11 12:55:26;;;;;;;;;7.00;7.00;;;;;;;;5058337;27;45601;-74
2022/09/11 12:57:51;;;;;;;;;5.00;5.00;;;;;;;;5057038;27;45969;-74
2022/09/11 13:00:33;;;;;;;;;9.00;7.00;;;;;;;;5071537;27;46139;-74
2022/09/11 13:03:00;;;;;;;;;7.75;6.00;;;;;;;;5061393;27;45435;-75
2022/09/11 13:05:35;;;;;;;;;7.50;7.50;;;;;;;;5054637;28;45788;-72
2022/09/11 13:08:05;;;;;;;;;5.50;5.50;;;;;;;;5068688;28;46453;-72
2022/09/11 13:10:36;;;;;;;;;6.00;6.00;;;;;;;;5066730;28;45700;-73
2022/09/11 13:13:03;;;;;;;;;7.33;6.00;;;;;;;;5068541;28;45451;-73
2022/09/11 13:15:39;;;;;;;;;4.00;4.00;;;;;;;;5042089;28;45566;-74
2022/09/11 13:18:20;;;;;;;;;4.00;4.00;;;;;;;;5065863;28;45507;-74
2022/09/11 13:20:54;;;;;;;;;31.00;27.33;;;;;;;;5066497;28;47179;-74
2022/09/11 13:23:19;;;;;;;;;7.25;7.00;;;;;;;;5072204;27;45697;-74
2022/09/11 13:25:46;;;;;;;;;5.00;4.25;;;;;;;;5071378;27;45871;-74
2022/09/11 13:28:13;;;;;;;;;6.75;6.00;;;;;;;;5054006;28;47071;-73
2022/09/11 13:30:48;;;;;;;;;7.50;7.00;;;;;;;;5069481;27;45503;-72
2022/09/11 13:33:17;;;;;;;;;7.50;5.50;;;;;;;;5051525;28;45448;-73
2022/09/11 13:35:44;;;;;;;;;38.67;33.00;;;;;;;;5070103;28;45464;-74
2022/09/11 13:38:15;;;;;;;;;6.50;6.50;;;;;;;;5065541;27;45368;-72
2022/09/11 13:40:47;;;;;;;;;5.50;4.50;;;;;;;;5051490;28;48006;-77
2022/09/11 13:43:16;;;;;;;;;8.67;8.67;;;;;;;;5067568;27;45399;-78
2022/09/11 13:45:41;;;;;;;;;15.33;14.33;;;;;;;;5044771;28;45707;-76
2022/09/11 13:48:20;;;;;;;;;7.50;5.50;;;;;;;;5076062;27;45467;-75
2022/09/11 13:50:47;;;;;;;;;4.33;4.33;;;;;;;;5075545;28;45459;-76
2022/09/11 13:53:12;;;;;;;;;5.50;5.50;;;;;;;;5057937;27;45294;-78
2022/09/11 13:56:09;;;;;;;;;7.25;4.75;;;;;;;;5085273;22;45542;-85
2022/09/11 13:59:04;;;;;;;;;3.75;3.75;;;;;;;;5090116;27;45327;-85
2022/09/11 14:02:04;;;;;;;;;4.75;4.00;;;;;;;;5102999;27;45458;-84
2022/09/11 14:07:59;;;;;;;;;;;;;;;;;;;;;
2022/09/11 14:26:38;;;;;;;;;3.50;2.50;;;;;;;;4971623;28;45625;-84
2022/09/11 14:38:18;;;;;;;;;3.50;3.50;;;;;;;;4966616;28;45019;-81
2022/09/11 14:50:00;;;;;;;;;5.00;3.75;;;;;;;;5065273;28;45944;-90
2022/09/11 15:15:27;;;;;;;;;5.00;3.67;;;;;;;;5103417;27;45034;-85
2022/09/11 15:17:56;;;;;;;;;3.00;3.00;;;;;;;;5098159;27;45278;-86
2022/09/11 15:20:31;;;;;;;;;4.00;4.00;;;;;;;;5099117;28;44835;-86
2022/09/11 15:22:59;;;;;;;;;4.00;3.00;;;;;;;;5081414;28;46032;-85
2022/09/11 15:25:35;;;;;;;;;3.00;3.00;;;;;;;;5098033;28;45569;-85
2022/09/11 15:34:16;;;;;;;;;1.00;1.00;;;;;;;;5015356;28;45719;-87
2022/09/11 15:43:26;;;;;;;;;2.00;2.00;;;;;;;;5024163;28;44773;-87
2022/09/11 15:49:33;;;;;;;;;2.75;2.00;;;;;;;;4960734;28;45593;-88
2022/09/11 15:52:25;;;;;;;;;3.50;3.50;;;;;;;;4951263;28;45330;-86
2022/09/11 15:55:28;;;;;;;;;2.00;2.00;;;;;;;;4942446;28;44865;-85